Time;durP1;ratioP1;P1;durP2;ratioP2;P2;SDS_P1;SDS_P2;PMS_P1;PMS_P2;Temp;Humidity;BMP_temperature;BMP_pressure;BME280_temperature;BME280_humidity;BME280_pressure;Samples;Min_cycle;Max_cycle;Signal;HPM_P1;HPM_P2
2022/04/14 00:02:51;;;;;;;11.23;5.80;;;;;;;;;;5053765;28;20045;-43
2022/04/14 00:05:35;;;;;;;16.42;6.45;;;;;;;;;;5053245;28;20106;-48
2022/04/14 00:08:19;;;;;;;12.32;5.95;;;;;;;;;;5053992;28;20048;-45
2022/04/14 00:11:04;;;;;;;13.93;6.03;;;;;;;;;;5053479;28;20053;-45
2022/04/14 00:13:48;;;;;;;13.82;6.63;;;;;;;;;;5053486;28;20049;-44
2022/04/14 00:16:33;;;;;;;15.45;5.93;;;;;;;;;;5053398;28;20071;-46
2022/04/14 00:19:18;;;;;;;12.02;5.70;;;;;;;;;;5052887;28;20048;-48
2022/04/14 00:22:02;;;;;;;14.75;6.55;;;;;;;;;;5053065;28;20400;-49
2022/04/14 00:24:47;;;;;;;12.68;6.13;;;;;;;;;;5052262;28;20107;-48
2022/04/14 00:27:31;;;;;;;12.88;6.30;;;;;;;;;;5053093;28;20040;-48
2022/04/14 00:30:16;;;;;;;13.57;6.53;;;;;;;;;;5052136;28;20044;-45
2022/04/14 00:33:01;;;;;;;13.25;6.57;;;;;;;;;;5052114;28;20044;-48
2022/04/14 00:35:46;;;;;;;13.32;6.22;;;;;;;;;;5049494;28;20049;-46
2022/04/14 00:38:30;;;;;;;14.57;6.03;;;;;;;;;;5053166;28;20052;-44
2022/04/14 00:41:16;;;;;;;12.77;6.88;;;;;;;;;;5052407;28;20041;-46
2022/04/14 00:44:01;;;;;;;15.27;7.15;;;;;;;;;;5053131;28;20052;-47
2022/04/14 00:46:45;;;;;;;14.13;6.47;;;;;;;;;;5053159;28;20056;-44
2022/04/14 00:49:30;;;;;;;11.80;5.55;;;;;;;;;;5051918;28;20045;-45
2022/04/14 00:52:16;;;;;;;12.93;6.07;;;;;;;;;;5052997;28;20048;-48
2022/04/14 00:55:00;;;;;;;13.63;6.50;;;;;;;;;;5051515;28;20048;-44
2022/04/14 00:57:46;;;;;;;14.18;5.75;;;;;;;;;;5052862;28;20041;-47
2022/04/14 01:00:30;;;;;;;12.15;6.00;;;;;;;;;;5053305;28;20052;-44
2022/04/14 01:03:15;;;;;;;15.82;6.70;;;;;;;;;;5052281;28;20480;-44
2022/04/14 01:06:00;;;;;;;13.10;6.43;;;;;;;;;;5052109;28;20037;-46
2022/04/14 01:09:16;;;;;;;14.60;7.03;;;;;;;;;;5052755;28;20059;-47
2022/04/14 01:11:50;;;;;;;14.52;7.25;;;;;;;;;;5052789;28;20040;-45
2022/04/14 01:14:36;;;;;;;14.32;6.70;;;;;;;;;;5051443;28;20408;-48
2022/04/14 01:17:21;;;;;;;13.68;6.95;;;;;;;;;;5052261;28;20578;-45
2022/04/14 01:20:05;;;;;;;11.63;5.55;;;;;;;;;;5051055;28;20606;-45
2022/04/14 01:22:55;;;;;;;12.25;6.40;;;;;;;;;;5052466;28;20047;-47
2022/04/14 01:25:40;;;;;;;13.60;7.00;;;;;;;;;;5051965;28;20067;-50
2022/04/14 01:28:24;;;;;;;12.02;5.95;;;;;;;;;;5052339;28;20524;-46
2022/04/14 01:31:08;;;;;;;12.57;5.88;;;;;;;;;;5051845;28;20051;-47
2022/04/14 01:33:53;;;;;;;15.88;6.93;;;;;;;;;;5050856;28;20041;-47
2022/04/14 01:36:37;;;;;;;15.10;6.43;;;;;;;;;;5052095;28;20120;-48
2022/04/14 01:39:22;;;;;;;14.15;6.30;;;;;;;;;;5047363;28;20102;-48
2022/04/14 01:42:06;;;;;;;17.80;7.43;;;;;;;;;;5052127;28;20041;-48
2022/04/14 01:44:51;;;;;;;16.95;7.10;;;;;;;;;;5051979;28;20060;-45
2022/04/14 01:47:42;;;;;;;14.88;7.35;;;;;;;;;;5051937;28;20048;-45
2022/04/14 01:50:26;;;;;;;15.85;7.00;;;;;;;;;;5052045;28;20068;-45
2022/04/14 01:53:10;;;;;;;14.95;7.00;;;;;;;;;;5056161;28;20052;-49
2022/04/14 01:55:55;;;;;;;16.52;7.43;;;;;;;;;;5055630;28;20048;-46
2022/04/14 01:58:39;;;;;;;16.95;7.32;;;;;;;;;;5056077;28;20041;-49
2022/04/14 02:01:24;;;;;;;14.70;6.95;;;;;;;;;;5054937;28;20037;-47
2022/04/14 02:04:08;;;;;;;14.93;7.03;;;;;;;;;;5055914;28;20049;-47
2022/04/14 02:06:53;;;;;;;12.40;6.60;;;;;;;;;;5054246;28;20634;-47
2022/04/14 02:09:38;;;;;;;11.73;6.40;;;;;;;;;;5055554;28;20055;-45
2022/04/14 02:12:24;;;;;;;13.40;6.57;;;;;;;;;;5056108;28;20049;-47
2022/04/14 02:15:09;;;;;;;15.73;6.72;;;;;;;;;;5055965;28;20436;-46
2022/04/14 02:17:54;;;;;;;17.42;6.95;;;;;;;;;;5055626;28;20057;-47
2022/04/14 02:20:38;;;;;;;14.13;7.30;;;;;;;;;;5055067;28;20491;-45
2022/04/14 02:23:23;;;;;;;15.18;5.07;;;;;;;;;;5054522;28;20061;-49
2022/04/14 02:26:07;;;;;;;14.32;6.30;;;;;;;;;;5055263;28;20411;-46
2022/04/14 02:28:54;;;;;;;14.35;6.25;;;;;;;;;;5055393;28;20084;-46
2022/04/14 02:31:38;;;;;;;18.63;6.85;;;;;;;;;;5055171;28;20480;-46
2022/04/14 02:34:24;;;;;;;19.38;7.32;;;;;;;;;;5055631;28;20037;-44
2022/04/14 02:37:09;;;;;;;12.27;6.45;;;;;;;;;;5054974;28;20049;-45
2022/04/14 02:39:54;;;;;;;14.50;6.72;;;;;;;;;;5054944;28;20476;-48
2022/04/14 02:42:41;;;;;;;12.88;6.70;;;;;;;;;;5054474;28;20075;-44
2022/04/14 02:45:26;;;;;;;17.90;6.68;;;;;;;;;;5054890;28;20629;-47
2022/04/14 02:48:10;;;;;;;13.35;6.20;;;;;;;;;;5055323;28;20476;-44
2022/04/14 02:50:55;;;;;;;13.52;6.00;;;;;;;;;;5054649;28;20103;-51
2022/04/14 02:53:40;;;;;;;14.30;6.68;;;;;;;;;;5054443;28;20041;-49
2022/04/14 02:56:24;;;;;;;15.05;6.55;;;;;;;;;;5054846;28;20041;-46
2022/04/14 02:59:08;;;;;;;13.80;6.22;;;;;;;;;;5054712;28;20590;-49
2022/04/14 03:01:53;;;;;;;18.40;7.30;;;;;;;;;;5067264;28;20356;-49
2022/04/14 03:04:37;;;;;;;14.60;6.78;;;;;;;;;;5054272;28;20052;-45
2022/04/14 03:07:22;;;;;;;12.77;6.20;;;;;;;;;;5054799;28;20041;-45
2022/04/14 03:10:07;;;;;;;20.13;6.97;;;;;;;;;;5054366;28;20068;-47
2022/04/14 03:12:52;;;;;;;11.55;5.50;;;;;;;;;;5053674;28;20041;-47
2022/04/14 03:15:36;;;;;;;13.38;6.32;;;;;;;;;;5053332;28;20071;-46
2022/04/14 03:18:21;;;;;;;12.00;5.93;;;;;;;;;;5053504;28;20557;-45
2022/04/14 03:21:07;;;;;;;12.00;6.07;;;;;;;;;;5053223;28;20127;-45
2022/04/14 03:23:51;;;;;;;19.50;7.47;;;;;;;;;;5054608;28;20045;-45
2022/04/14 03:26:36;;;;;;;13.15;7.07;;;;;;;;;;5039374;28;20049;-47
2022/04/14 03:29:21;;;;;;;16.65;6.30;;;;;;;;;;5054000;28;20502;-45
2022/04/14 03:32:05;;;;;;;13.02;6.35;;;;;;;;;;5053413;28;20045;-47
2022/04/14 03:34:51;;;;;;;13.20;6.82;;;;;;;;;;5054216;28;20060;-46
2022/04/14 03:37:36;;;;;;;23.67;7.57;;;;;;;;;;5054210;28;20049;-45
2022/04/14 03:40:21;;;;;;;14.93;7.30;;;;;;;;;;5066548;28;20044;-49
2022/04/14 03:43:06;;;;;;;12.57;6.05;;;;;;;;;;5054418;28;20079;-46
2022/04/14 03:45:51;;;;;;;13.20;5.78;;;;;;;;;;5047132;28;20480;-48
2022/04/14 03:48:35;;;;;;;14.82;6.65;;;;;;;;;;5037978;28;20041;-47
2022/04/14 03:51:22;;;;;;;12.85;6.28;;;;;;;;;;5050179;28;20029;-46
2022/04/14 03:54:06;;;;;;;10.20;5.75;;;;;;;;;;5050816;28;20455;-46
2022/04/14 03:56:51;;;;;;;18.23;5.85;;;;;;;;;;5052932;28;20044;-48
2022/04/14 03:59:36;;;;;;;10.48;5.45;;;;;;;;;;5053698;28;20055;-46
2022/04/14 04:02:21;;;;;;;15.10;6.43;;;;;;;;;;5053258;28;20049;-47
2022/04/14 04:05:06;;;;;;;12.80;6.18;;;;;;;;;;5051551;28;20045;-47
2022/04/14 04:07:50;;;;;;;14.23;6.15;;;;;;;;;;5061982;28;20037;-46
2022/04/14 04:10:35;;;;;;;12.90;5.55;;;;;;;;;;5069675;28;20045;-48
2022/04/14 04:13:20;;;;;;;13.43;6.60;;;;;;;;;;5044627;28;20110;-48
2022/04/14 04:16:05;;;;;;;10.45;5.85;;;;;;;;;;5037080;28;20499;-47
2022/04/14 04:18:50;;;;;;;13.40;6.90;;;;;;;;;;5032985;28;20061;-45
2022/04/14 04:21:34;;;;;;;16.75;7.38;;;;;;;;;;5033166;28;20480;-49
2022/04/14 04:24:18;;;;;;;13.63;6.45;;;;;;;;;;5032474;28;20400;-45
2022/04/14 04:27:03;;;;;;;12.18;6.47;;;;;;;;;;5033072;28;20049;-45
2022/04/14 04:29:48;;;;;;;23.17;7.22;;;;;;;;;;5033083;28;20057;-47
2022/04/14 04:32:33;;;;;;;14.57;6.82;;;;;;;;;;5032379;28;20473;-50
2022/04/14 04:35:18;;;;;;;16.05;6.47;;;;;;;;;;5033070;28;20042;-48
2022/04/14 04:38:02;;;;;;;13.55;6.25;;;;;;;;;;5033167;28;20056;-45
2022/04/14 04:40:47;;;;;;;10.90;6.47;;;;;;;;;;5032876;28;20404;-46
2022/04/14 04:43:31;;;;;;;15.13;6.60;;;;;;;;;;5033096;28;20045;-46
2022/04/14 04:46:16;;;;;;;13.18;6.40;;;;;;;;;;5037300;28;20060;-45
2022/04/14 04:49:01;;;;;;;12.27;6.00;;;;;;;;;;5053113;28;20049;-46
2022/04/14 04:51:45;;;;;;;13.35;6.47;;;;;;;;;;5052761;28;20687;-48
2022/04/14 04:54:30;;;;;;;15.70;6.07;;;;;;;;;;5052566;28;20040;-46
2022/04/14 04:57:14;;;;;;;15.52;6.95;;;;;;;;;;5051856;28;20114;-46
2022/04/14 04:59:59;;;;;;;10.82;5.53;;;;;;;;;;5051492;28;20048;-45
2022/04/14 05:02:45;;;;;;;11.07;6.18;;;;;;;;;;5052505;28;20056;-45
2022/04/14 05:05:29;;;;;;;13.82;5.90;;;;;;;;;;5051450;28;20048;-47
2022/04/14 05:08:14;;;;;;;14.38;6.03;;;;;;;;;;5051452;28;20063;-45
2022/04/14 05:10:58;;;;;;;12.25;6.00;;;;;;;;;;5052625;28;20048;-45
2022/04/14 05:13:43;;;;;;;10.50;6.13;;;;;;;;;;5051735;28;20041;-48
2022/04/14 05:16:27;;;;;;;14.02;6.72;;;;;;;;;;5052294;28;20079;-49
2022/04/14 05:19:11;;;;;;;14.77;6.30;;;;;;;;;;5037234;28;20075;-47
2022/04/14 05:21:57;;;;;;;11.32;5.53;;;;;;;;;;5051380;28;20049;-44
2022/04/14 05:24:42;;;;;;;12.00;6.03;;;;;;;;;;5051340;28;20487;-46
2022/04/14 05:27:26;;;;;;;11.73;6.05;;;;;;;;;;5052102;28;20049;-47
2022/04/14 05:30:11;;;;;;;12.48;6.30;;;;;;;;;;5023593;28;20056;-48
2022/04/14 05:32:56;;;;;;;10.52;5.28;;;;;;;;;;5052235;28;20047;-46
2022/04/14 05:35:43;;;;;;;18.23;6.25;;;;;;;;;;5051165;28;20044;-45
2022/04/14 05:38:27;;;;;;;12.25;5.72;;;;;;;;;;5052388;28;20056;-45
2022/04/14 05:41:12;;;;;;;12.05;5.95;;;;;;;;;;5052237;28;20048;-47
2022/04/14 05:43:57;;;;;;;12.98;5.75;;;;;;;;;;5051250;28;20135;-44
2022/04/14 05:46:41;;;;;;;13.85;6.10;;;;;;;;;;5051673;28;20038;-45
2022/04/14 05:49:26;;;;;;;13.27;6.22;;;;;;;;;;5051152;28;20044;-46
2022/04/14 05:52:11;;;;;;;14.88;6.65;;;;;;;;;;5051107;28;20037;-48
2022/04/14 05:54:58;;;;;;;12.27;6.80;;;;;;;;;;5051376;28;20042;-45
2022/04/14 05:57:42;;;;;;;11.13;6.20;;;;;;;;;;5049386;28;20540;-48
2022/04/14 06:00:27;;;;;;;13.57;6.15;;;;;;;;;;5051047;28;20105;-44
2022/04/14 06:03:12;;;;;;;13.55;5.95;;;;;;;;;;5051577;28;20049;-45
2022/04/14 06:05:56;;;;;;;11.63;6.20;;;;;;;;;;5050618;28;20048;-47
2022/04/14 06:08:40;;;;;;;12.60;6.30;;;;;;;;;;5051952;28;20048;-47
2022/04/14 06:11:25;;;;;;;12.65;6.43;;;;;;;;;;5051618;28;20155;-45
2022/04/14 06:14:10;;;;;;;13.70;6.63;;;;;;;;;;5050756;28;20041;-45
2022/04/14 06:16:55;;;;;;;12.00;6.50;;;;;;;;;;5050598;28;20048;-46
2022/04/14 06:19:40;;;;;;;14.48;6.50;;;;;;;;;;5051702;28;20048;-45
2022/04/14 06:22:24;;;;;;;10.18;5.78;;;;;;;;;;5051523;28;20070;-51
2022/04/14 06:25:13;;;;;;;11.98;5.50;;;;;;;;;;5050535;28;20106;-47
2022/04/14 06:27:57;;;;;;;14.07;6.45;;;;;;;;;;5050193;28;20032;-46
2022/04/14 06:30:42;;;;;;;11.05;5.95;;;;;;;;;;5050835;28;20053;-45
2022/04/14 06:33:30;;;;;;;11.65;6.28;;;;;;;;;;5051720;28;20057;-48
2022/04/14 06:36:15;;;;;;;11.35;5.68;;;;;;;;;;5051333;28;20372;-46
2022/04/14 06:39:00;;;;;;;12.57;6.30;;;;;;;;;;5053637;28;20492;-51
2022/04/14 06:41:44;;;;;;;14.00;5.95;;;;;;;;;;5055224;28;20037;-49
2022/04/14 06:44:29;;;;;;;12.20;6.22;;;;;;;;;;5055843;28;20060;-48
2022/04/14 06:47:14;;;;;;;15.40;6.32;;;;;;;;;;5055355;28;20041;-50
2022/04/14 06:49:58;;;;;;;13.25;6.25;;;;;;;;;;5054702;28;20033;-51
2022/04/14 06:52:43;;;;;;;9.55;5.15;;;;;;;;;;5052543;28;20484;-54
2022/04/14 06:55:28;;;;;;;10.95;5.65;;;;;;;;;;5053315;28;20045;-52
2022/04/14 06:58:12;;;;;;;11.63;5.68;;;;;;;;;;5052297;28;20067;-51
2022/04/14 07:00:57;;;;;;;11.73;5.70;;;;;;;;;;5053359;28;20094;-51
2022/04/14 07:03:42;;;;;;;12.38;5.40;;;;;;;;;;5054120;28;20047;-49
2022/04/14 07:06:27;;;;;;;10.18;5.63;;;;;;;;;;5053858;28;20049;-47
2022/04/14 07:09:11;;;;;;;13.18;5.82;;;;;;;;;;5054716;28;20059;-51
2022/04/14 07:11:58;;;;;;;15.90;6.05;;;;;;;;;;5054471;28;20049;-49
2022/04/14 07:14:43;;;;;;;12.00;6.03;;;;;;;;;;5054508;28;20116;-48
2022/04/14 07:17:27;;;;;;;13.93;6.15;;;;;;;;;;5053925;28;20411;-49
2022/04/14 07:20:12;;;;;;;12.93;6.68;;;;;;;;;;5054437;28;20448;-50
2022/04/14 07:22:59;;;;;;;15.15;6.35;;;;;;;;;;5054361;28;20057;-49
2022/04/14 07:25:44;;;;;;;11.02;5.85;;;;;;;;;;5054393;28;20041;-51
2022/04/14 07:28:29;;;;;;;14.00;6.63;;;;;;;;;;5054316;28;20071;-51
2022/04/14 07:31:13;;;;;;;11.63;5.68;;;;;;;;;;5053149;28;20048;-49
2022/04/14 07:33:58;;;;;;;10.68;6.00;;;;;;;;;;5019345;28;20057;-52
2022/04/14 07:36:44;;;;;;;10.90;5.80;;;;;;;;;;5034414;28;20041;-51
2022/04/14 07:39:29;;;;;;;13.30;6.45;;;;;;;;;;5034351;28;20140;-49
2022/04/14 07:42:13;;;;;;;11.38;6.05;;;;;;;;;;5035030;28;20037;-51
2022/04/14 07:44:58;;;;;;;19.13;6.20;;;;;;;;;;5050629;28;20045;-49
2022/04/14 07:47:43;;;;;;;11.77;6.25;;;;;;;;;;5053988;28;20075;-48
2022/04/14 07:50:28;;;;;;;11.57;5.40;;;;;;;;;;5038307;28;20442;-50
2022/04/14 07:53:13;;;;;;;9.82;5.50;;;;;;;;;;5053681;28;20112;-52
2022/04/14 07:55:58;;;;;;;12.18;5.53;;;;;;;;;;5053009;28;20048;-48
2022/04/14 07:58:45;;;;;;;10.93;5.38;;;;;;;;;;5066565;28;20041;-49
2022/04/14 08:01:29;;;;;;;10.10;5.60;;;;;;;;;;5051264;28;20091;-51
2022/04/14 08:04:14;;;;;;;11.07;5.28;;;;;;;;;;5052104;28;20048;-51
2022/04/14 08:06:59;;;;;;;12.40;5.72;;;;;;;;;;5052217;28;20067;-52
2022/04/14 08:09:43;;;;;;;11.82;5.07;;;;;;;;;;5050719;28;20400;-48
2022/04/14 08:12:29;;;;;;;11.13;4.75;;;;;;;;;;5053557;28;20048;-49
2022/04/14 08:15:14;;;;;;;10.98;5.38;;;;;;;;;;5053686;28;20048;-48
2022/04/14 08:17:58;;;;;;;11.68;5.55;;;;;;;;;;5053453;28;20064;-52
2022/04/14 08:20:43;;;;;;;8.18;4.75;;;;;;;;;;5053252;28;20491;-48
2022/04/14 08:23:29;;;;;;;9.73;3.47;;;;;;;;;;5052162;28;20400;-49
2022/04/14 08:26:13;;;;;;;7.00;3.20;;;;;;;;;;5053292;28;20439;-51
2022/04/14 08:28:59;;;;;;;6.45;3.03;;;;;;;;;;5053368;28;20048;-50
2022/04/14 08:31:44;;;;;;;6.50;2.90;;;;;;;;;;5053688;28;20469;-49
2022/04/14 08:34:28;;;;;;;9.20;3.00;;;;;;;;;;5053397;28;20049;-49
2022/04/14 08:37:13;;;;;;;7.20;2.80;;;;;;;;;;5053490;28;20552;-51
2022/04/14 08:39:58;;;;;;;4.57;2.60;;;;;;;;;;5052337;28;20098;-51
2022/04/14 08:42:50;;;;;;;6.93;3.10;;;;;;;;;;5052512;28;20385;-50
2022/04/14 08:45:46;;;;;;;5.75;2.78;;;;;;;;;;5065810;28;20052;-47
2022/04/14 08:48:31;;;;;;;6.32;2.40;;;;;;;;;;5033035;28;20072;-51
2022/04/14 08:51:17;;;;;;;7.00;3.22;;;;;;;;;;5032265;28;20051;-48
2022/04/14 08:54:02;;;;;;;5.55;2.85;;;;;;;;;;5051769;28;20076;-52
2022/04/14 08:56:47;;;;;;;10.00;3.55;;;;;;;;;;5052011;28;20033;-46
2022/04/14 08:59:31;;;;;;;5.15;2.65;;;;;;;;;;5079416;28;20048;-48
2022/04/14 09:02:21;;;;;;;5.75;2.85;;;;;;;;;;5051964;28;20033;-51
2022/04/14 09:05:06;;;;;;;6.15;2.60;;;;;;;;;;5052602;28;20041;-49
2022/04/14 09:07:51;;;;;;;5.75;2.53;;;;;;;;;;5052358;28;20037;-48
2022/04/14 09:10:35;;;;;;;6.78;2.80;;;;;;;;;;5080198;28;20063;-48
2022/04/14 09:13:20;;;;;;;5.32;2.90;;;;;;;;;;5052762;28;20063;-52
2022/04/14 09:16:05;;;;;;;6.82;2.55;;;;;;;;;;5051406;28;20387;-51
2022/04/14 09:18:50;;;;;;;7.15;2.90;;;;;;;;;;5079638;28;20052;-50
2022/04/14 09:21:34;;;;;;;3.58;2.00;;;;;;;;;;5052705;28;20103;-39
2022/04/14 09:24:37;;;;;;;7.00;2.80;;;;;;;;;;5052080;28;20064;-52
2022/04/14 09:27:31;;;;;;;5.97;2.83;;;;;;;;;;5051134;28;20488;-47
2022/04/14 09:30:17;;;;;;;5.53;2.72;;;;;;;;;;5051341;28;20041;-50
2022/04/14 09:33:02;;;;;;;6.25;2.63;;;;;;;;;;5051076;28;20049;-52
2022/04/14 09:36:02;;;;;;;5.25;2.53;;;;;;;;;;5051009;28;20048;-48
2022/04/14 09:38:56;;;;;;;4.60;2.78;;;;;;;;;;5031192;28;20507;-49
2022/04/14 09:41:42;;;;;;;7.07;2.70;;;;;;;;;;5032551;28;20374;-49
2022/04/14 09:44:26;;;;;;;4.72;2.95;;;;;;;;;;5032729;28;20103;-48
2022/04/14 09:47:11;;;;;;;6.20;2.95;;;;;;;;;;5043256;28;20091;-47
2022/04/14 09:49:56;;;;;;;7.05;2.83;;;;;;;;;;5052406;28;20591;-50
2022/04/14 09:53:05;;;;;;;6.70;2.97;;;;;;;;;;5052286;28;20384;-50
2022/04/14 09:55:49;;;;;;;5.60;2.50;;;;;;;;;;5064940;28;20041;-51
2022/04/14 09:58:34;;;;;;;5.00;2.60;;;;;;;;;;5051891;28;20484;-49
2022/04/14 10:01:20;;;;;;;5.72;2.88;;;;;;;;;;5052293;28;20127;-49
2022/04/14 10:04:06;;;;;;;6.57;2.33;;;;;;;;;;5051767;28;20122;-51
2022/04/14 10:07:11;;;;;;;5.30;2.70;;;;;;;;;;5051895;28;20037;-50
2022/04/14 10:09:55;;;;;;;4.07;2.33;;;;;;;;;;5050889;28;20040;-49
2022/04/14 10:12:40;;;;;;;5.88;2.63;;;;;;;;;;5053542;28;20116;-59
2022/04/14 10:15:25;;;;;;;6.20;2.50;;;;;;;;;;5056037;28;20075;-49
2022/04/14 10:18:13;;;;;;;7.13;2.63;;;;;;;;;;5055853;28;20778;-52
2022/04/14 10:20:58;;;;;;;3.90;2.25;;;;;;;;;;5055673;28;20397;-52
2022/04/14 10:23:43;;;;;;;4.47;2.60;;;;;;;;;;5055783;28;20071;-51
2022/04/14 10:26:28;;;;;;;9.32;2.40;;;;;;;;;;5055662;28;20522;-49
2022/04/14 10:29:14;;;;;;;4.97;2.20;;;;;;;;;;5055577;28;20555;-53
2022/04/14 10:32:01;;;;;;;5.20;2.00;;;;;;;;;;5055460;28;20413;-52
2022/04/14 10:34:46;;;;;;;2.55;1.83;;;;;;;;;;5055614;28;20037;-50
2022/04/14 10:37:34;;;;;;;3.85;1.80;;;;;;;;;;5054272;28;20045;-51
2022/04/14 10:40:19;;;;;;;3.63;2.00;;;;;;;;;;5054402;28;20495;-48
2022/04/14 10:43:08;;;;;;;3.65;2.28;;;;;;;;;;5055441;28;20045;-53
2022/04/14 10:45:54;;;;;;;4.95;2.10;;;;;;;;;;5055187;28;20037;-49
2022/04/14 10:48:46;;;;;;;3.00;1.95;;;;;;;;;;5055467;28;20072;-52
2022/04/14 10:51:33;;;;;;;6.47;2.22;;;;;;;;;;5053993;28;20123;-48
2022/04/14 10:54:19;;;;;;;5.65;2.35;;;;;;;;;;5053766;28;20139;-49
2022/04/14 10:57:04;;;;;;;5.22;2.50;;;;;;;;;;5055316;28;20106;-51
2022/04/14 10:59:50;;;;;;;5.22;2.20;;;;;;;;;;5054863;28;20420;-51
2022/04/14 11:03:00;;;;;;;4.68;2.17;;;;;;;;;;5054346;28;20045;-49
2022/04/14 11:05:49;;;;;;;3.50;2.38;;;;;;;;;;5054712;28;20099;-48
2022/04/14 11:08:48;;;;;;;5.78;2.35;;;;;;;;;;5054725;28;20506;-47
2022/04/14 11:11:51;;;;;;;5.80;2.92;;;;;;;;;;5054675;28;20072;-48
2022/04/14 11:14:36;;;;;;;5.35;2.20;;;;;;;;;;5054452;28;20045;-49
2022/04/14 11:17:48;;;;;;;5.85;2.33;;;;;;;;;;5054297;28;20416;-51
2022/04/14 11:20:41;;;;;;;3.15;1.83;;;;;;;;;;5054546;28;20343;-50
2022/04/14 11:23:26;;;;;;;6.70;3.25;;;;;;;;;;5054010;28;20069;-48
2022/04/14 11:26:11;;;;;;;8.65;2.45;;;;;;;;;;5054589;28;20083;-48
2022/04/14 11:28:57;;;;;;;4.22;2.20;;;;;;;;;;5054240;28;20041;-48
2022/04/14 11:31:45;;;;;;;6.88;2.45;;;;;;;;;;5054194;28;20041;-50
2022/04/14 11:34:33;;;;;;;4.22;2.00;;;;;;;;;;5053259;28;20404;-48
2022/04/14 11:37:36;;;;;;;3.15;2.08;;;;;;;;;;5053170;28;20052;-49
2022/04/14 11:40:22;;;;;;;5.43;2.17;;;;;;;;;;5053679;28;20041;-48
2022/04/14 11:43:06;;;;;;;3.70;2.28;;;;;;;;;;5038461;28;20752;-48
2022/04/14 11:45:52;;;;;;;4.55;2.20;;;;;;;;;;5052705;28;20113;-48
2022/04/14 11:48:37;;;;;;;3.80;2.10;;;;;;;;;;5054275;28;20404;-48
2022/04/14 11:51:21;;;;;;;6.50;2.22;;;;;;;;;;5052993;28;20072;-46
2022/04/14 11:54:06;;;;;;;3.78;2.25;;;;;;;;;;5052859;28;20053;-52
2022/04/14 11:56:52;;;;;;;6.97;2.00;;;;;;;;;;5052652;28;20052;-51
2022/04/14 11:59:38;;;;;;;10.07;2.35;;;;;;;;;;5053156;28;20072;-51
2022/04/14 12:02:24;;;;;;;4.03;1.95;;;;;;;;;;5053879;28;20056;-48
2022/04/14 12:05:08;;;;;;;5.60;1.88;;;;;;;;;;5052969;28;20037;-53
2022/04/14 12:08:04;;;;;;;5.35;3.03;;;;;;;;;;5052737;28;20500;-56
2022/04/14 12:10:49;;;;;;;3.08;1.88;;;;;;;;;;5053540;28;20049;-55
2022/04/14 12:13:33;;;;;;;6.60;2.00;;;;;;;;;;5053687;28;20037;-48
2022/04/14 12:16:18;;;;;;;4.32;2.00;;;;;;;;;;5053848;28;20056;-49
2022/04/14 12:19:05;;;;;;;7.35;1.90;;;;;;;;;;5052152;28;20460;-50
2022/04/14 12:21:58;;;;;;;5.53;1.67;;;;;;;;;;5052312;28;20037;-50
2022/04/14 12:25:03;;;;;;;3.97;1.90;;;;;;;;;;5052834;28;20083;-48
2022/04/14 12:27:49;;;;;;;4.20;1.77;;;;;;;;;;5051905;28;20045;-49
2022/04/14 12:30:35;;;;;;;3.88;2.17;;;;;;;;;;5049242;28;20530;-57
2022/04/14 12:33:30;;;;;;;7.05;2.05;;;;;;;;;;5052248;28;20477;-51
2022/04/14 12:36:15;;;;;;;3.95;1.80;;;;;;;;;;5051564;28;20404;-48
2022/04/14 12:39:02;;;;;;;4.30;1.85;;;;;;;;;;5052144;28;20067;-52
2022/04/14 12:41:48;;;;;;;5.18;1.67;;;;;;;;;;5052529;28;20434;-50
2022/04/14 12:44:43;;;;;;;3.22;1.50;;;;;;;;;;5052880;28;20045;-50
2022/04/14 12:47:29;;;;;;;3.92;1.58;;;;;;;;;;5052965;28;20041;-46
2022/04/14 12:50:18;;;;;;;3.20;1.52;;;;;;;;;;5053186;28;20127;-47
2022/04/14 12:53:04;;;;;;;2.70;1.70;;;;;;;;;;5051739;28;20049;-47
2022/04/14 12:55:49;;;;;;;5.30;1.55;;;;;;;;;;5051572;28;20087;-49
2022/04/14 12:58:33;;;;;;;3.65;1.80;;;;;;;;;;5052743;28;20471;-50
2022/04/14 13:01:17;;;;;;;4.38;1.92;;;;;;;;;;5052843;28;20072;-49
2022/04/14 13:04:08;;;;;;;3.83;2.05;;;;;;;;;;5052727;28;20049;-52
2022/04/14 13:06:59;;;;;;;3.65;1.40;;;;;;;;;;5047522;28;20068;-50
2022/04/14 13:10:00;;;;;;;3.30;1.48;;;;;;;;;;5052001;28;20048;-49
2022/04/14 13:12:45;;;;;;;3.53;1.30;;;;;;;;;;5046380;28;20052;-49
2022/04/14 13:15:31;;;;;;;2.72;1.30;;;;;;;;;;5052403;28;20053;-54
2022/04/14 13:18:15;;;;;;;3.30;1.92;;;;;;;;;;5049929;28;20048;-49
2022/04/14 13:20:59;;;;;;;5.57;1.90;;;;;;;;;;5059895;28;20435;-53
2022/04/14 13:23:44;;;;;;;2.28;1.30;;;;;;;;;;5052263;28;20041;-49
2022/04/14 13:26:29;;;;;;;2.83;1.92;;;;;;;;;;5052229;28;20095;-50
2022/04/14 13:29:13;;;;;;;7.28;1.75;;;;;;;;;;5052195;28;20369;-52
2022/04/14 13:31:58;;;;;;;2.75;1.50;;;;;;;;;;5051601;28;20037;-54
2022/04/14 13:34:43;;;;;;;3.60;1.60;;;;;;;;;;5045495;28;20048;-53
2022/04/14 13:37:28;;;;;;;4.60;1.83;;;;;;;;;;5051704;28;20041;-55
2022/04/14 13:40:12;;;;;;;2.72;1.48;;;;;;;;;;5051433;28;20496;-53
2022/04/14 13:42:57;;;;;;;5.82;1.50;;;;;;;;;;5049650;28;20091;-47
2022/04/14 13:45:42;;;;;;;4.43;1.50;;;;;;;;;;5051703;28;20052;-50
2022/04/14 13:48:27;;;;;;;2.80;1.30;;;;;;;;;;5041795;28;20037;-50
2022/04/14 13:51:11;;;;;;;3.08;1.38;;;;;;;;;;5041167;28;20045;-54
2022/04/14 13:53:56;;;;;;;4.80;1.45;;;;;;;;;;5055733;28;20400;-52
2022/04/14 13:56:41;;;;;;;5.07;1.60;;;;;;;;;;5055915;28;20068;-50
2022/04/14 13:59:25;;;;;;;2.20;1.30;;;;;;;;;;5056131;28;20052;-51
2022/04/14 14:02:12;;;;;;;4.57;1.30;;;;;;;;;;5055962;28;20487;-46
2022/04/14 14:04:57;;;;;;;4.07;1.27;;;;;;;;;;5055764;28;20151;-52
2022/04/14 14:07:42;;;;;;;3.90;1.40;;;;;;;;;;5055294;28;20041;-52
2022/04/14 14:10:27;;;;;;;3.70;1.77;;;;;;;;;;5052381;28;20041;-54
2022/04/14 14:13:11;;;;;;;4.43;1.60;;;;;;;;;;5052891;28;20049;-49
2022/04/14 14:15:56;;;;;;;2.45;1.58;;;;;;;;;;5055898;28;20045;-47
2022/04/14 14:18:41;;;;;;;1.90;1.20;;;;;;;;;;5054411;28;20067;-49
2022/04/14 14:21:25;;;;;;;2.50;1.35;;;;;;;;;;5055382;28;20668;-47
2022/04/14 14:24:09;;;;;;;3.17;1.67;;;;;;;;;;5055293;28;20041;-56
2022/04/14 14:26:54;;;;;;;2.65;1.42;;;;;;;;;;5055679;28;20099;-50
2022/04/14 14:29:39;;;;;;;2.40;1.33;;;;;;;;;;5055351;28;20041;-45
2022/04/14 14:32:23;;;;;;;2.72;1.20;;;;;;;;;;5046258;28;20041;-48
2022/04/14 14:35:13;;;;;;;1.92;1.20;;;;;;;;;;5053497;28;20045;-50
2022/04/14 14:37:58;;;;;;;4.13;1.45;;;;;;;;;;5055180;28;20060;-45
2022/04/14 14:40:43;;;;;;;2.08;1.13;;;;;;;;;;5054299;28;20407;-45
2022/04/14 14:43:29;;;;;;;4.57;1.38;;;;;;;;;;5054998;28;20102;-49
2022/04/14 14:46:14;;;;;;;3.22;1.23;;;;;;;;;;5055012;28;20037;-48
2022/04/14 14:48:59;;;;;;;2.25;1.10;;;;;;;;;;5067971;28;20040;-46
2022/04/14 14:51:43;;;;;;;2.35;1.70;;;;;;;;;;5054969;28;20052;-47
2022/04/14 14:54:28;;;;;;;3.28;1.35;;;;;;;;;;5055123;28;20041;-46
2022/04/14 14:57:12;;;;;;;1.80;1.13;;;;;;;;;;5054601;28;20330;-46
2022/04/14 14:59:57;;;;;;;2.28;1.27;;;;;;;;;;5052555;28;20439;-46
2022/04/14 15:02:41;;;;;;;2.88;1.27;;;;;;;;;;5054901;28;20124;-51
2022/04/14 15:05:29;;;;;;;2.90;1.52;;;;;;;;;;5054910;28;20052;-48
2022/04/14 15:08:14;;;;;;;4.25;1.83;;;;;;;;;;5050229;28;20087;-48
2022/04/14 15:10:58;;;;;;;2.25;1.20;;;;;;;;;;5046050;28;20047;-48
2022/04/14 15:13:42;;;;;;;3.72;1.48;;;;;;;;;;5054803;28;20080;-48
2022/04/14 15:16:28;;;;;;;6.13;1.65;;;;;;;;;;5054514;28;20045;-46
2022/04/14 15:19:12;;;;;;;1.60;1.20;;;;;;;;;;5053622;28;20068;-44
2022/04/14 15:21:57;;;;;;;3.42;1.30;;;;;;;;;;5053624;28;20434;-49
2022/04/14 15:24:42;;;;;;;3.58;1.30;;;;;;;;;;5054549;28;20045;-51
2022/04/14 15:27:26;;;;;;;3.80;1.60;;;;;;;;;;5053418;28;20480;-46
2022/04/14 15:30:11;;;;;;;7.85;1.50;;;;;;;;;;5054297;28;20068;-49
2022/04/14 15:32:56;;;;;;;2.50;1.20;;;;;;;;;;5053713;28;20044;-49
2022/04/14 15:35:40;;;;;;;4.55;1.40;;;;;;;;;;5052605;28;20049;-47
2022/04/14 15:38:26;;;;;;;2.30;1.30;;;;;;;;;;5045029;28;20041;-47
2022/04/14 15:41:11;;;;;;;5.63;1.95;;;;;;;;;;5051277;28;20510;-49
2022/04/14 15:43:55;;;;;;;3.20;1.25;;;;;;;;;;5054190;28;20114;-46
2022/04/14 15:46:40;;;;;;;3.22;1.48;;;;;;;;;;5054153;28;20041;-48
2022/04/14 15:49:25;;;;;;;2.03;1.50;;;;;;;;;;5053112;28;20041;-46
2022/04/14 15:52:09;;;;;;;2.45;1.52;;;;;;;;;;5054067;28;20049;-45
2022/04/14 15:54:54;;;;;;;5.25;1.40;;;;;;;;;;5054062;28;20140;-49
2022/04/14 15:57:38;;;;;;;2.08;1.33;;;;;;;;;;5053792;28;20041;-49
2022/04/14 16:00:23;;;;;;;4.13;1.50;;;;;;;;;;5053149;28;20053;-51
2022/04/14 16:03:14;;;;;;;3.20;1.50;;;;;;;;;;5053718;28;20045;-47
2022/04/14 16:06:00;;;;;;;3.60;1.30;;;;;;;;;;5054066;28;20049;-49
2022/04/14 16:08:44;;;;;;;2.53;1.40;;;;;;;;;;5052397;28;20441;-51
2022/04/14 16:14:32;;;;;;;3.90;1.45;;;;;;;;;;5050506;28;20056;-48
2022/04/14 16:17:17;;;;;;;2.97;1.40;;;;;;;;;;5049987;28;20052;-52
2022/04/14 16:20:01;;;;;;;1.70;1.20;;;;;;;;;;5052705;28;20049;-49
2022/04/14 16:22:46;;;;;;;5.82;1.48;;;;;;;;;;5052647;28;20037;-47
2022/04/14 16:25:30;;;;;;;7.85;1.77;;;;;;;;;;5032603;28;20037;-50
2022/04/14 16:28:15;;;;;;;3.33;1.38;;;;;;;;;;5033195;28;20057;-47
2022/04/14 16:31:00;;;;;;;1.60;1.00;;;;;;;;;;5033537;28;20042;-49